sensor_id;sensor_type;location;lat;lon;timestamp;P1;durP1;ratioP1;P2;durP2;ratioP2
64361;SDS011;50685;53.346;-6.296;2022-07-11T00:01:32;8.13;;;2.88;;
64361;SDS011;50685;53.346;-6.296;2022-07-11T00:03:57;2.63;;;2.42;;
64361;SDS011;50685;53.346;-6.296;2022-07-11T00:06:23;3.42;;;1.85;;
64361;SDS011;50685;53.346;-6.296;2022-07-11T00:08:48;5.03;;;2.63;;
64361;SDS011;50685;53.346;-6.296;2022-07-11T00:11:14;7.13;;;2.97;;
64361;SDS011;50685;53.346;-6.296;2022-07-11T00:13:39;7.20;;;3.42;;
64361;SDS011;50685;53.346;-6.296;2022-07-11T00:16:07;5.18;;;2.72;;
64361;SDS011;50685;53.346;-6.296;2022-07-11T00:18:32;8.70;;;3.28;;
64361;SDS011;50685;53.346;-6.296;2022-07-11T00:20:58;7.70;;;3.08;;
64361;SDS011;50685;53.346;-6.296;2022-07-11T00:23:23;4.00;;;2.60;;
64361;SDS011;50685;53.346;-6.296;2022-07-11T00:25:49;6.22;;;3.30;;
64361;SDS011;50685;53.346;-6.296;2022-07-11T00:28:14;5.20;;;3.05;;
64361;SDS011;50685;53.346;-6.296;2022-07-11T00:30:39;3.55;;;2.88;;
64361;SDS011;50685;53.346;-6.296;2022-07-11T00:33:05;5.07;;;2.55;;
64361;SDS011;50685;53.346;-6.296;2022-07-11T00:35:30;5.63;;;3.08;;
64361;SDS011;50685;53.346;-6.296;2022-07-11T00:37:56;4.18;;;2.63;;
64361;SDS011;50685;53.346;-6.296;2022-07-11T00:40:21;4.88;;;3.00;;
64361;SDS011;50685;53.346;-6.296;2022-07-11T00:45:31;3.75;;;3.30;;
64361;SDS011;50685;53.346;-6.296;2022-07-11T00:47:57;4.05;;;2.92;;
64361;SDS011;50685;53.346;-6.296;2022-07-11T00:50:23;8.70;;;3.17;;
64361;SDS011;50685;53.346;-6.296;2022-07-11T00:52:50;2.88;;;2.40;;
64361;SDS011;50685;53.346;-6.296;2022-07-11T00:55:16;2.55;;;2.35;;
64361;SDS011;50685;53.346;-6.296;2022-07-11T00:57:43;3.20;;;2.45;;
64361;SDS011;50685;53.346;-6.296;2022-07-11T01:00:09;4.25;;;2.88;;
64361;SDS011;50685;53.346;-6.296;2022-07-11T01:02:35;2.30;;;2.10;;
64361;SDS011;50685;53.346;-6.296;2022-07-11T01:05:01;2.47;;;2.28;;
64361;SDS011;50685;53.346;-6.296;2022-07-11T01:07:26;2.33;;;2.13;;
64361;SDS011;50685;53.346;-6.296;2022-07-11T01:09:52;4.35;;;2.30;;
64361;SDS011;50685;53.346;-6.296;2022-07-11T01:12:17;6.53;;;2.65;;
64361;SDS011;50685;53.346;-6.296;2022-07-11T01:14:52;10.90;;;2.17;;
64361;SDS011;50685;53.346;-6.296;2022-07-11T01:17:24;4.47;;;2.25;;
64361;SDS011;50685;53.346;-6.296;2022-07-11T01:19:49;5.30;;;2.50;;
64361;SDS011;50685;53.346;-6.296;2022-07-11T01:22:16;3.65;;;2.28;;
64361;SDS011;50685;53.346;-6.296;2022-07-11T01:24:44;3.95;;;2.50;;
64361;SDS011;50685;53.346;-6.296;2022-07-11T01:27:10;4.60;;;2.05;;
64361;SDS011;50685;53.346;-6.296;2022-07-11T01:29:36;4.15;;;2.20;;
64361;SDS011;50685;53.346;-6.296;2022-07-11T01:32:02;3.03;;;2.30;;
64361;SDS011;50685;53.346;-6.296;2022-07-11T01:34:27;4.70;;;2.20;;
64361;SDS011;50685;53.346;-6.296;2022-07-11T01:36:53;2.95;;;2.38;;
64361;SDS011;50685;53.346;-6.296;2022-07-11T01:39:19;3.22;;;1.83;;
64361;SDS011;50685;53.346;-6.296;2022-07-11T01:41:44;3.67;;;2.28;;
64361;SDS011;50685;53.346;-6.296;2022-07-11T01:44:10;3.47;;;2.05;;
64361;SDS011;50685;53.346;-6.296;2022-07-11T01:46:35;7.03;;;2.50;;
64361;SDS011;50685;53.346;-6.296;2022-07-11T01:49:01;2.83;;;2.45;;
64361;SDS011;50685;53.346;-6.296;2022-07-11T01:51:27;8.38;;;2.03;;
64361;SDS011;50685;53.346;-6.296;2022-07-11T01:53:53;3.80;;;2.83;;
64361;SDS011;50685;53.346;-6.296;2022-07-11T01:56:20;3.95;;;3.00;;
64361;SDS011;50685;53.346;-6.296;2022-07-11T01:58:48;4.85;;;3.28;;
64361;SDS011;50685;53.346;-6.296;2022-07-11T02:01:14;4.07;;;3.45;;
64361;SDS011;50685;53.346;-6.296;2022-07-11T02:03:40;8.43;;;3.97;;
64361;SDS011;50685;53.346;-6.296;2022-07-11T02:06:06;10.25;;;3.78;;
64361;SDS011;50685;53.346;-6.296;2022-07-11T02:08:31;5.82;;;3.63;;
64361;SDS011;50685;53.346;-6.296;2022-07-11T02:10:57;6.03;;;3.65;;
64361;SDS011;50685;53.346;-6.296;2022-07-11T02:13:22;10.05;;;3.70;;
64361;SDS011;50685;53.346;-6.296;2022-07-11T02:15:48;5.40;;;3.95;;
64361;SDS011;50685;53.346;-6.296;2022-07-11T02:18:16;7.93;;;3.53;;
64361;SDS011;50685;53.346;-6.296;2022-07-11T02:20:43;7.70;;;3.90;;
64361;SDS011;50685;53.346;-6.296;2022-07-11T02:23:11;5.82;;;4.82;;
64361;SDS011;50685;53.346;-6.296;2022-07-11T02:25:37;8.65;;;4.10;;
64361;SDS011;50685;53.346;-6.296;2022-07-11T02:28:06;8.77;;;3.65;;
64361;SDS011;50685;53.346;-6.296;2022-07-11T02:30:36;5.07;;;3.70;;
64361;SDS011;50685;53.346;-6.296;2022-07-11T02:33:02;10.45;;;4.05;;
64361;SDS011;50685;53.346;-6.296;2022-07-11T02:35:28;4.13;;;3.83;;
64361;SDS011;50685;53.346;-6.296;2022-07-11T02:37:54;4.88;;;3.75;;
64361;SDS011;50685;53.346;-6.296;2022-07-11T02:40:19;8.00;;;3.47;;
64361;SDS011;50685;53.346;-6.296;2022-07-11T02:42:45;8.75;;;3.65;;
64361;SDS011;50685;53.346;-6.296;2022-07-11T02:45:10;5.55;;;3.63;;
64361;SDS011;50685;53.346;-6.296;2022-07-11T02:47:37;5.15;;;4.18;;
64361;SDS011;50685;53.346;-6.296;2022-07-11T02:50:07;6.32;;;4.25;;
64361;SDS011;50685;53.346;-6.296;2022-07-11T02:52:34;5.57;;;3.95;;
64361;SDS011;50685;53.346;-6.296;2022-07-11T02:55:00;6.65;;;3.85;;
64361;SDS011;50685;53.346;-6.296;2022-07-11T02:57:26;6.45;;;3.95;;
64361;SDS011;50685;53.346;-6.296;2022-07-11T02:59:51;4.75;;;4.25;;
64361;SDS011;50685;53.346;-6.296;2022-07-11T03:02:17;6.82;;;4.50;;
64361;SDS011;50685;53.346;-6.296;2022-07-11T03:04:42;6.40;;;3.40;;
64361;SDS011;50685;53.346;-6.296;2022-07-11T03:07:08;4.60;;;4.03;;
64361;SDS011;50685;53.346;-6.296;2022-07-11T03:09:33;5.93;;;4.22;;
64361;SDS011;50685;53.346;-6.296;2022-07-11T03:11:58;4.57;;;3.38;;
64361;SDS011;50685;53.346;-6.296;2022-07-11T03:14:24;5.10;;;3.22;;
64361;SDS011;50685;53.346;-6.296;2022-07-11T03:16:50;3.17;;;2.63;;
64361;SDS011;50685;53.346;-6.296;2022-07-11T03:19:15;4.15;;;2.67;;
64361;SDS011;50685;53.346;-6.296;2022-07-11T03:21:41;7.60;;;2.72;;
64361;SDS011;50685;53.346;-6.296;2022-07-11T03:24:06;4.22;;;2.60;;
64361;SDS011;50685;53.346;-6.296;2022-07-11T03:26:32;5.35;;;3.40;;
64361;SDS011;50685;53.346;-6.296;2022-07-11T03:28:57;4.78;;;2.83;;
64361;SDS011;50685;53.346;-6.296;2022-07-11T03:31:22;3.97;;;2.67;;
64361;SDS011;50685;53.346;-6.296;2022-07-11T03:33:48;4.20;;;2.55;;
64361;SDS011;50685;53.346;-6.296;2022-07-11T03:36:13;3.97;;;2.78;;
64361;SDS011;50685;53.346;-6.296;2022-07-11T03:38:39;5.00;;;3.15;;
64361;SDS011;50685;53.346;-6.296;2022-07-11T03:41:04;7.78;;;2.63;;
64361;SDS011;50685;53.346;-6.296;2022-07-11T03:43:30;4.15;;;3.00;;
64361;SDS011;50685;53.346;-6.296;2022-07-11T03:45:56;3.38;;;2.70;;
64361;SDS011;50685;53.346;-6.296;2022-07-11T03:48:21;6.60;;;2.88;;
64361;SDS011;50685;53.346;-6.296;2022-07-11T03:50:47;3.00;;;2.65;;
64361;SDS011;50685;53.346;-6.296;2022-07-11T03:53:13;6.22;;;3.38;;
64361;SDS011;50685;53.346;-6.296;2022-07-11T03:55:39;4.55;;;3.05;;
64361;SDS011;50685;53.346;-6.296;2022-07-11T03:58:05;5.32;;;2.58;;
64361;SDS011;50685;53.346;-6.296;2022-07-11T04:00:31;4.00;;;2.90;;
64361;SDS011;50685;53.346;-6.296;2022-07-11T04:02:57;4.03;;;3.33;;
64361;SDS011;50685;53.346;-6.296;2022-07-11T04:05:23;6.68;;;3.63;;
64361;SDS011;50685;53.346;-6.296;2022-07-11T04:07:48;4.05;;;3.17;;
64361;SDS011;50685;53.346;-6.296;2022-07-11T04:10:14;4.18;;;3.60;;
64361;SDS011;50685;53.346;-6.296;2022-07-11T04:12:41;6.55;;;3.47;;
64361;SDS011;50685;53.346;-6.296;2022-07-11T04:15:06;5.90;;;4.00;;
64361;SDS011;50685;53.346;-6.296;2022-07-11T04:17:32;4.07;;;3.60;;
64361;SDS011;50685;53.346;-6.296;2022-07-11T04:19:58;6.90;;;3.55;;
64361;SDS011;50685;53.346;-6.296;2022-07-11T04:22:23;3.40;;;3.05;;
64361;SDS011;50685;53.346;-6.296;2022-07-11T04:24:49;5.38;;;3.58;;
64361;SDS011;50685;53.346;-6.296;2022-07-11T04:27:15;4.82;;;3.03;;
64361;SDS011;50685;53.346;-6.296;2022-07-11T04:29:40;4.57;;;3.08;;
64361;SDS011;50685;53.346;-6.296;2022-07-11T04:32:06;5.10;;;3.40;;
64361;SDS011;50685;53.346;-6.296;2022-07-11T04:34:32;3.97;;;3.50;;
64361;SDS011;50685;53.346;-6.296;2022-07-11T04:36:57;4.47;;;3.15;;
64361;SDS011;50685;53.346;-6.296;2022-07-11T04:39:23;4.88;;;3.65;;
64361;SDS011;50685;53.346;-6.296;2022-07-11T04:41:49;2.90;;;2.70;;
64361;SDS011;50685;53.346;-6.296;2022-07-11T04:44:14;3.17;;;2.72;;
64361;SDS011;50685;53.346;-6.296;2022-07-11T04:46:40;3.28;;;2.53;;
64361;SDS011;50685;53.346;-6.296;2022-07-11T04:49:05;4.45;;;3.00;;
64361;SDS011;50685;53.346;-6.296;2022-07-11T04:51:31;7.53;;;3.30;;
64361;SDS011;50685;53.346;-6.296;2022-07-11T04:53:56;3.70;;;2.88;;
64361;SDS011;50685;53.346;-6.296;2022-07-11T04:56:22;5.70;;;2.55;;
64361;SDS011;50685;53.346;-6.296;2022-07-11T04:58:47;8.25;;;3.35;;
64361;SDS011;50685;53.346;-6.296;2022-07-11T05:01:13;4.50;;;2.97;;
64361;SDS011;50685;53.346;-6.296;2022-07-11T05:03:38;2.97;;;2.63;;
64361;SDS011;50685;53.346;-6.296;2022-07-11T05:06:04;6.93;;;2.42;;
64361;SDS011;50685;53.346;-6.296;2022-07-11T05:08:31;5.15;;;2.78;;
64361;SDS011;50685;53.346;-6.296;2022-07-11T05:11:01;3.55;;;2.47;;
64361;SDS011;50685;53.346;-6.296;2022-07-11T05:13:30;4.57;;;2.80;;
64361;SDS011;50685;53.346;-6.296;2022-07-11T05:15:56;4.13;;;2.40;;
64361;SDS011;50685;53.346;-6.296;2022-07-11T05:18:22;2.50;;;2.30;;
64361;SDS011;50685;53.346;-6.296;2022-07-11T05:20:47;4.43;;;2.47;;
64361;SDS011;50685;53.346;-6.296;2022-07-11T05:23:14;4.43;;;2.70;;
64361;SDS011;50685;53.346;-6.296;2022-07-11T05:25:40;3.78;;;2.67;;
64361;SDS011;50685;53.346;-6.296;2022-07-11T05:28:05;2.65;;;2.45;;
64361;SDS011;50685;53.346;-6.296;2022-07-11T05:30:31;3.10;;;2.75;;
64361;SDS011;50685;53.346;-6.296;2022-07-11T05:32:56;7.10;;;2.60;;
64361;SDS011;50685;53.346;-6.296;2022-07-11T05:35:22;6.63;;;3.13;;
64361;SDS011;50685;53.346;-6.296;2022-07-11T05:37:47;5.07;;;2.60;;
64361;SDS011;50685;53.346;-6.296;2022-07-11T05:40:13;6.05;;;2.90;;
64361;SDS011;50685;53.346;-6.296;2022-07-11T05:42:38;3.38;;;3.08;;
64361;SDS011;50685;53.346;-6.296;2022-07-11T05:45:04;4.43;;;3.15;;
64361;SDS011;50685;53.346;-6.296;2022-07-11T05:47:29;5.95;;;2.83;;
64361;SDS011;50685;53.346;-6.296;2022-07-11T05:49:55;5.88;;;3.50;;
64361;SDS011;50685;53.346;-6.296;2022-07-11T05:52:20;3.67;;;3.30;;
64361;SDS011;50685;53.346;-6.296;2022-07-11T05:54:46;3.55;;;3.25;;
64361;SDS011;50685;53.346;-6.296;2022-07-11T05:57:11;11.18;;;3.95;;
64361;SDS011;50685;53.346;-6.296;2022-07-11T05:59:36;9.15;;;3.20;;
64361;SDS011;50685;53.346;-6.296;2022-07-11T06:02:03;5.78;;;3.53;;
64361;SDS011;50685;53.346;-6.296;2022-07-11T06:04:29;5.63;;;3.90;;
64361;SDS011;50685;53.346;-6.296;2022-07-11T06:06:55;5.35;;;3.65;;
64361;SDS011;50685;53.346;-6.296;2022-07-11T06:09:20;6.60;;;4.00;;
64361;SDS011;50685;53.346;-6.296;2022-07-11T06:11:45;6.10;;;3.95;;
64361;SDS011;50685;53.346;-6.296;2022-07-11T06:14:11;6.82;;;4.07;;
64361;SDS011;50685;53.346;-6.296;2022-07-11T06:16:36;4.60;;;3.58;;
64361;SDS011;50685;53.346;-6.296;2022-07-11T06:19:02;5.05;;;3.33;;
64361;SDS011;50685;53.346;-6.296;2022-07-11T06:21:27;4.68;;;3.50;;
64361;SDS011;50685;53.346;-6.296;2022-07-11T06:23:53;7.20;;;4.10;;
64361;SDS011;50685;53.346;-6.296;2022-07-11T06:26:19;9.15;;;4.22;;
64361;SDS011;50685;53.346;-6.296;2022-07-11T06:28:45;4.28;;;3.55;;
64361;SDS011;50685;53.346;-6.296;2022-07-11T06:31:11;8.07;;;4.20;;
64361;SDS011;50685;53.346;-6.296;2022-07-11T06:33:37;4.97;;;3.75;;
64361;SDS011;50685;53.346;-6.296;2022-07-11T06:36:03;8.93;;;3.85;;
64361;SDS011;50685;53.346;-6.296;2022-07-11T06:38:30;6.75;;;3.78;;
64361;SDS011;50685;53.346;-6.296;2022-07-11T06:40:56;9.60;;;4.28;;
64361;SDS011;50685;53.346;-6.296;2022-07-11T06:43:22;8.65;;;4.30;;
64361;SDS011;50685;53.346;-6.296;2022-07-11T06:45:48;12.48;;;4.90;;
64361;SDS011;50685;53.346;-6.296;2022-07-11T06:48:14;9.50;;;4.43;;
64361;SDS011;50685;53.346;-6.296;2022-07-11T06:50:40;19.98;;;4.35;;
64361;SDS011;50685;53.346;-6.296;2022-07-11T06:53:05;9.10;;;4.32;;
64361;SDS011;50685;53.346;-6.296;2022-07-11T06:55:31;9.57;;;3.85;;
64361;SDS011;50685;53.346;-6.296;2022-07-11T06:57:58;5.80;;;3.97;;
64361;SDS011;50685;53.346;-6.296;2022-07-11T07:00:24;6.20;;;3.28;;
64361;SDS011;50685;53.346;-6.296;2022-07-11T07:02:49;5.20;;;3.63;;
64361;SDS011;50685;53.346;-6.296;2022-07-11T07:05:15;7.28;;;3.60;;
64361;SDS011;50685;53.346;-6.296;2022-07-11T07:07:41;10.05;;;4.50;;
64361;SDS011;50685;53.346;-6.296;2022-07-11T07:10:07;5.03;;;3.78;;
64361;SDS011;50685;53.346;-6.296;2022-07-11T07:12:37;6.80;;;3.08;;
64361;SDS011;50685;53.346;-6.296;2022-07-11T07:15:04;8.90;;;4.20;;
64361;SDS011;50685;53.346;-6.296;2022-07-11T07:17:30;10.82;;;2.85;;
64361;SDS011;50685;53.346;-6.296;2022-07-11T07:19:56;3.10;;;2.80;;
64361;SDS011;50685;53.346;-6.296;2022-07-11T07:22:22;7.95;;;2.97;;
64361;SDS011;50685;53.346;-6.296;2022-07-11T07:24:47;6.72;;;2.80;;
64361;SDS011;50685;53.346;-6.296;2022-07-11T07:27:12;6.00;;;3.20;;
64361;SDS011;50685;53.346;-6.296;2022-07-11T07:29:39;5.75;;;3.10;;
64361;SDS011;50685;53.346;-6.296;2022-07-11T07:32:05;11.50;;;2.97;;
64361;SDS011;50685;53.346;-6.296;2022-07-11T07:34:31;11.35;;;3.50;;
64361;SDS011;50685;53.346;-6.296;2022-07-11T07:36:57;3.97;;;2.42;;
64361;SDS011;50685;53.346;-6.296;2022-07-11T07:39:41;6.13;;;2.58;;
64361;SDS011;50685;53.346;-6.296;2022-07-11T07:42:06;2.75;;;2.50;;
64361;SDS011;50685;53.346;-6.296;2022-07-11T07:44:32;5.07;;;2.67;;
64361;SDS011;50685;53.346;-6.296;2022-07-11T07:46:58;7.40;;;2.35;;
64361;SDS011;50685;53.346;-6.296;2022-07-11T07:49:23;11.75;;;2.70;;
64361;SDS011;50685;53.346;-6.296;2022-07-11T07:51:48;12.48;;;2.42;;
64361;SDS011;50685;53.346;-6.296;2022-07-11T07:54:14;2.83;;;1.92;;
64361;SDS011;50685;53.346;-6.296;2022-07-11T07:56:39;5.82;;;2.00;;
64361;SDS011;50685;53.346;-6.296;2022-07-11T07:59:05;10.82;;;2.30;;
64361;SDS011;50685;53.346;-6.296;2022-07-11T08:01:30;4.78;;;2.30;;
64361;SDS011;50685;53.346;-6.296;2022-07-11T08:04:03;9.63;;;1.48;;
64361;SDS011;50685;53.346;-6.296;2022-07-11T08:06:30;13.13;;;2.00;;
64361;SDS011;50685;53.346;-6.296;2022-07-11T08:08:56;5.97;;;1.70;;
64361;SDS011;50685;53.346;-6.296;2022-07-11T08:11:22;2.67;;;1.60;;
64361;SDS011;50685;53.346;-6.296;2022-07-11T08:13:47;8.27;;;1.83;;
64361;SDS011;50685;53.346;-6.296;2022-07-11T08:16:14;13.82;;;2.13;;
64361;SDS011;50685;53.346;-6.296;2022-07-11T08:18:40;7.60;;;2.30;;
64361;SDS011;50685;53.346;-6.296;2022-07-11T08:21:06;5.68;;;2.05;;
64361;SDS011;50685;53.346;-6.296;2022-07-11T08:23:31;5.10;;;2.05;;
64361;SDS011;50685;53.346;-6.296;2022-07-11T08:25:57;2.47;;;1.90;;
64361;SDS011;50685;53.346;-6.296;2022-07-11T08:28:22;5.25;;;2.38;;
64361;SDS011;50685;53.346;-6.296;2022-07-11T08:30:48;7.80;;;2.45;;
64361;SDS011;50685;53.346;-6.296;2022-07-11T08:33:13;10.27;;;1.75;;
64361;SDS011;50685;53.346;-6.296;2022-07-11T08:35:39;5.78;;;2.08;;
64361;SDS011;50685;53.346;-6.296;2022-07-11T08:38:05;5.35;;;1.75;;
64361;SDS011;50685;53.346;-6.296;2022-07-11T08:40:30;4.45;;;1.60;;
64361;SDS011;50685;53.346;-6.296;2022-07-11T08:42:56;3.42;;;1.58;;
64361;SDS011;50685;53.346;-6.296;2022-07-11T08:45:30;4.30;;;1.50;;
64361;SDS011;50685;53.346;-6.296;2022-07-11T08:47:57;2.83;;;1.48;;
64361;SDS011;50685;53.346;-6.296;2022-07-11T08:50:25;1.42;;;1.33;;
64361;SDS011;50685;53.346;-6.296;2022-07-11T08:52:55;4.13;;;1.42;;
64361;SDS011;50685;53.346;-6.296;2022-07-11T08:55:24;4.53;;;1.20;;
64361;SDS011;50685;53.346;-6.296;2022-07-11T08:57:49;3.40;;;1.45;;
64361;SDS011;50685;53.346;-6.296;2022-07-11T09:00:15;4.00;;;1.20;;
64361;SDS011;50685;53.346;-6.296;2022-07-11T09:02:42;1.02;;;0.88;;
64361;SDS011;50685;53.346;-6.296;2022-07-11T09:05:08;3.83;;;1.30;;
64361;SDS011;50685;53.346;-6.296;2022-07-11T09:07:53;3.30;;;1.25;;
64361;SDS011;50685;53.346;-6.296;2022-07-11T09:10:18;1.52;;;1.10;;
64361;SDS011;50685;53.346;-6.296;2022-07-11T09:18:04;2.35;;;1.10;;
64361;SDS011;50685;53.346;-6.296;2022-07-11T09:26:22;4.72;;;1.10;;
64361;SDS011;50685;53.346;-6.296;2022-07-11T09:29:09;4.85;;;1.00;;
64361;SDS011;50685;53.346;-6.296;2022-07-11T09:31:34;3.13;;;1.15;;
64361;SDS011;50685;53.346;-6.296;2022-07-11T09:34:02;4.57;;;1.50;;
64361;SDS011;50685;53.346;-6.296;2022-07-11T09:36:43;5.72;;;1.40;;
64361;SDS011;50685;53.346;-6.296;2022-07-11T09:39:17;3.45;;;1.35;;
64361;SDS011;50685;53.346;-6.296;2022-07-11T09:41:45;6.63;;;1.40;;
64361;SDS011;50685;53.346;-6.296;2022-07-11T09:46:39;9.43;;;1.40;;
64361;SDS011;50685;53.346;-6.296;2022-07-11T09:49:06;9.80;;;1.10;;
64361;SDS011;50685;53.346;-6.296;2022-07-11T09:51:32;4.22;;;1.40;;
64361;SDS011;50685;53.346;-6.296;2022-07-11T09:53:59;4.30;;;1.50;;
64361;SDS011;50685;53.346;-6.296;2022-07-11T09:56:25;2.15;;;1.23;;
64361;SDS011;50685;53.346;-6.296;2022-07-11T09:59:17;7.68;;;1.20;;
64361;SDS011;50685;53.346;-6.296;2022-07-11T10:01:44;6.50;;;1.30;;
64361;SDS011;50685;53.346;-6.296;2022-07-11T10:04:10;4.10;;;1.23;;
64361;SDS011;50685;53.346;-6.296;2022-07-11T10:06:36;5.57;;;1.40;;
64361;SDS011;50685;53.346;-6.296;2022-07-11T10:09:03;5.03;;;1.05;;
64361;SDS011;50685;53.346;-6.296;2022-07-11T10:11:30;4.43;;;1.27;;
64361;SDS011;50685;53.346;-6.296;2022-07-11T10:13:57;8.10;;;1.08;;
64361;SDS011;50685;53.346;-6.296;2022-07-11T10:17:11;3.85;;;1.00;;
64361;SDS011;50685;53.346;-6.296;2022-07-11T10:19:30;0.63;;;0.50;;
64361;SDS011;50685;53.346;-6.296;2022-07-11T10:22:19;9.73;;;1.15;;
64361;SDS011;50685;53.346;-6.296;2022-07-11T10:30:55;0.85;;;0.70;;
64361;SDS011;50685;53.346;-6.296;2022-07-11T10:33:22;3.42;;;0.70;;
64361;SDS011;50685;53.346;-6.296;2022-07-11T10:35:48;1.40;;;0.50;;
64361;SDS011;50685;53.346;-6.296;2022-07-11T10:38:15;1.00;;;0.68;;
64361;SDS011;50685;53.346;-6.296;2022-07-11T10:43:15;1.80;;;0.75;;
64361;SDS011;50685;53.346;-6.296;2022-07-11T10:45:54;0.85;;;0.80;;
64361;SDS011;50685;53.346;-6.296;2022-07-11T10:48:20;3.22;;;0.63;;
64361;SDS011;50685;53.346;-6.296;2022-07-11T10:50:46;0.60;;;0.60;;
64361;SDS011;50685;53.346;-6.296;2022-07-11T10:53:19;1.15;;;0.65;;
64361;SDS011;50685;53.346;-6.296;2022-07-11T10:55:47;8.27;;;0.90;;
64361;SDS011;50685;53.346;-6.296;2022-07-11T10:58:29;1.13;;;0.70;;
64361;SDS011;50685;53.346;-6.296;2022-07-11T11:01:12;3.55;;;0.75;;
64361;SDS011;50685;53.346;-6.296;2022-07-11T11:03:38;1.15;;;0.80;;
64361;SDS011;50685;53.346;-6.296;2022-07-11T11:06:05;1.30;;;0.70;;
64361;SDS011;50685;53.346;-6.296;2022-07-11T11:10:57;1.45;;;0.73;;
64361;SDS011;50685;53.346;-6.296;2022-07-11T11:13:28;2.50;;;0.90;;
64361;SDS011;50685;53.346;-6.296;2022-07-11T11:15:57;2.83;;;1.00;;
64361;SDS011;50685;53.346;-6.296;2022-07-11T11:23:39;1.88;;;0.90;;
64361;SDS011;50685;53.346;-6.296;2022-07-11T11:26:06;0.70;;;0.70;;
64361;SDS011;50685;53.346;-6.296;2022-07-11T11:28:35;0.80;;;0.80;;
64361;SDS011;50685;53.346;-6.296;2022-07-11T11:31:03;3.70;;;0.90;;
64361;SDS011;50685;53.346;-6.296;2022-07-11T11:33:33;1.88;;;0.80;;
64361;SDS011;50685;53.346;-6.296;2022-07-11T11:36:07;0.98;;;0.70;;
64361;SDS011;50685;53.346;-6.296;2022-07-11T11:38:34;0.60;;;0.60;;
64361;SDS011;50685;53.346;-6.296;2022-07-11T11:41:01;2.60;;;0.60;;
64361;SDS011;50685;53.346;-6.296;2022-07-11T11:43:27;5.00;;;0.70;;
64361;SDS011;50685;53.346;-6.296;2022-07-11T11:45:53;1.40;;;0.70;;
64361;SDS011;50685;53.346;-6.296;2022-07-11T11:51:03;1.10;;;1.00;;
64361;SDS011;50685;53.346;-6.296;2022-07-11T11:53:39;3.92;;;0.85;;
64361;SDS011;50685;53.346;-6.296;2022-07-11T11:58:46;1.75;;;0.98;;
64361;SDS011;50685;53.346;-6.296;2022-07-11T12:01:12;4.70;;;1.25;;
64361;SDS011;50685;53.346;-6.296;2022-07-11T12:06:22;2.80;;;0.88;;
64361;SDS011;50685;53.346;-6.296;2022-07-11T12:08:58;5.72;;;0.70;;
64361;SDS011;50685;53.346;-6.296;2022-07-11T12:11:27;1.92;;;0.80;;
64361;SDS011;50685;53.346;-6.296;2022-07-11T12:14:01;1.75;;;0.77;;
64361;SDS011;50685;53.346;-6.296;2022-07-11T12:16:29;3.70;;;1.25;;
64361;SDS011;50685;53.346;-6.296;2022-07-11T12:19:17;1.08;;;0.98;;
64361;SDS011;50685;53.346;-6.296;2022-07-11T12:21:46;2.90;;;0.90;;
64361;SDS011;50685;53.346;-6.296;2022-07-11T12:24:15;3.30;;;1.02;;
64361;SDS011;50685;53.346;-6.296;2022-07-11T12:26:43;4.78;;;1.23;;
64361;SDS011;50685;53.346;-6.296;2022-07-11T12:29:10;1.20;;;0.90;;
64361;SDS011;50685;53.346;-6.296;2022-07-11T12:31:48;4.50;;;1.15;;
64361;SDS011;50685;53.346;-6.296;2022-07-11T12:34:21;4.97;;;1.05;;
64361;SDS011;50685;53.346;-6.296;2022-07-11T12:36:48;3.42;;;0.82;;
64361;SDS011;50685;53.346;-6.296;2022-07-11T12:39:27;3.25;;;0.80;;
64361;SDS011;50685;53.346;-6.296;2022-07-11T12:41:55;2.15;;;1.05;;
64361;SDS011;50685;53.346;-6.296;2022-07-11T12:44:24;4.35;;;0.70;;
64361;SDS011;50685;53.346;-6.296;2022-07-11T12:47:15;10.90;;;2.47;;
64361;SDS011;50685;53.346;-6.296;2022-07-11T12:49:49;2.63;;;1.20;;
64361;SDS011;50685;53.346;-6.296;2022-07-11T12:52:16;3.55;;;0.88;;
64361;SDS011;50685;53.346;-6.296;2022-07-11T12:54:43;7.45;;;0.90;;
64361;SDS011;50685;53.346;-6.296;2022-07-11T12:57:09;3.35;;;1.08;;
64361;SDS011;50685;53.346;-6.296;2022-07-11T12:59:38;2.78;;;0.90;;
64361;SDS011;50685;53.346;-6.296;2022-07-11T13:06:58;4.05;;;0.75;;
64361;SDS011;50685;53.346;-6.296;2022-07-11T13:09:42;1.80;;;0.60;;
64361;SDS011;50685;53.346;-6.296;2022-07-11T13:12:08;1.40;;;0.70;;
64361;SDS011;50685;53.346;-6.296;2022-07-11T13:14:34;6.70;;;0.63;;
64361;SDS011;50685;53.346;-6.296;2022-07-11T13:17:19;1.73;;;0.50;;
64361;SDS011;50685;53.346;-6.296;2022-07-11T13:19:45;2.45;;;0.73;;
64361;SDS011;50685;53.346;-6.296;2022-07-11T13:22:10;5.90;;;0.80;;
64361;SDS011;50685;53.346;-6.296;2022-07-11T13:24:35;2.45;;;0.70;;
64361;SDS011;50685;53.346;-6.296;2022-07-11T13:27:01;5.15;;;1.10;;
64361;SDS011;50685;53.346;-6.296;2022-07-11T13:29:27;1.58;;;0.63;;
64361;SDS011;50685;53.346;-6.296;2022-07-11T13:31:53;8.90;;;1.02;;
64361;SDS011;50685;53.346;-6.296;2022-07-11T13:34:18;1.35;;;0.70;;
64361;SDS011;50685;53.346;-6.296;2022-07-11T13:36:43;1.88;;;0.60;;
64361;SDS011;50685;53.346;-6.296;2022-07-11T13:39:09;2.65;;;0.57;;
64361;SDS011;50685;53.346;-6.296;2022-07-11T13:41:34;0.68;;;0.63;;
64361;SDS011;50685;53.346;-6.296;2022-07-11T13:46:44;1.77;;;0.70;;
64361;SDS011;50685;53.346;-6.296;2022-07-11T13:49:10;1.63;;;0.75;;
64361;SDS011;50685;53.346;-6.296;2022-07-11T13:51:37;4.10;;;0.80;;
64361;SDS011;50685;53.346;-6.296;2022-07-11T13:54:03;3.67;;;0.77;;
64361;SDS011;50685;53.346;-6.296;2022-07-11T13:56:28;0.70;;;0.70;;
64361;SDS011;50685;53.346;-6.296;2022-07-11T13:58:54;2.97;;;0.77;;
64361;SDS011;50685;53.346;-6.296;2022-07-11T14:01:19;3.38;;;0.70;;
64361;SDS011;50685;53.346;-6.296;2022-07-11T14:03:45;3.20;;;1.02;;
64361;SDS011;50685;53.346;-6.296;2022-07-11T14:06:10;7.80;;;1.10;;
64361;SDS011;50685;53.346;-6.296;2022-07-11T14:08:36;3.10;;;0.73;;
64361;SDS011;50685;53.346;-6.296;2022-07-11T14:11:02;1.73;;;0.85;;
64361;SDS011;50685;53.346;-6.296;2022-07-11T14:13:28;6.90;;;0.88;;
64361;SDS011;50685;53.346;-6.296;2022-07-11T14:15:54;0.80;;;0.60;;
64361;SDS011;50685;53.346;-6.296;2022-07-11T14:18:19;1.80;;;0.70;;
64361;SDS011;50685;53.346;-6.296;2022-07-11T14:20:45;0.40;;;0.40;;
64361;SDS011;50685;53.346;-6.296;2022-07-11T14:23:11;2.58;;;0.50;;
64361;SDS011;50685;53.346;-6.296;2022-07-11T14:25:36;1.17;;;0.40;;
64361;SDS011;50685;53.346;-6.296;2022-07-11T14:28:02;0.60;;;0.52;;
64361;SDS011;50685;53.346;-6.296;2022-07-11T14:30:27;0.50;;;0.45;;
64361;SDS011;50685;53.346;-6.296;2022-07-11T14:32:54;1.42;;;0.57;;
64361;SDS011;50685;53.346;-6.296;2022-07-11T14:35:19;2.03;;;0.47;;
64361;SDS011;50685;53.346;-6.296;2022-07-11T14:37:45;0.68;;;0.50;;
64361;SDS011;50685;53.346;-6.296;2022-07-11T14:40:10;1.30;;;0.60;;
64361;SDS011;50685;53.346;-6.296;2022-07-11T14:42:36;0.75;;;0.50;;
64361;SDS011;50685;53.346;-6.296;2022-07-11T14:45:02;1.50;;;0.43;;
64361;SDS011;50685;53.346;-6.296;2022-07-11T14:47:28;3.83;;;0.40;;
64361;SDS011;50685;53.346;-6.296;2022-07-11T14:49:53;3.80;;;0.50;;
64361;SDS011;50685;53.346;-6.296;2022-07-11T14:52:19;0.95;;;0.60;;
64361;SDS011;50685;53.346;-6.296;2022-07-11T14:54:44;5.13;;;0.40;;
64361;SDS011;50685;53.346;-6.296;2022-07-11T14:57:10;3.65;;;0.70;;
64361;SDS011;50685;53.346;-6.296;2022-07-11T14:59:35;2.70;;;0.47;;
64361;SDS011;50685;53.346;-6.296;2022-07-11T15:02:01;1.98;;;0.65;;
64361;SDS011;50685;53.346;-6.296;2022-07-11T15:04:27;0.60;;;0.45;;
64361;SDS011;50685;53.346;-6.296;2022-07-11T15:06:52;2.20;;;0.57;;
64361;SDS011;50685;53.346;-6.296;2022-07-11T15:09:37;0.65;;;0.50;;
64361;SDS011;50685;53.346;-6.296;2022-07-11T15:12:21;2.22;;;0.50;;
64361;SDS011;50685;53.346;-6.296;2022-07-11T15:14:49;3.33;;;1.08;;
64361;SDS011;50685;53.346;-6.296;2022-07-11T15:17:16;2.20;;;0.70;;
64361;SDS011;50685;53.346;-6.296;2022-07-11T15:19:45;0.70;;;0.50;;
64361;SDS011;50685;53.346;-6.296;2022-07-11T15:22:11;0.73;;;0.60;;